createdAt,value
2023-01-05T00:01:33.072Z,97259.44
2023-01-05T00:04:00.671Z,97260.25
2023-01-05T00:06:28.320Z,97264.22
2023-01-05T00:08:55.786Z,97272.53
2023-01-05T00:11:45.318Z,97265.34
2023-01-05T00:14:43.690Z,97272.28
2023-01-05T00:17:32.052Z,97275.53
2023-01-05T00:20:18.320Z,97272.88
2023-01-05T00:22:51.074Z,97271.81
2023-01-05T00:25:29.919Z,97264.88
2023-01-05T00:27:58.749Z,97278.88
2023-01-05T00:30:30.383Z,97269.88
2023-01-05T00:32:58.079Z,97274.94
2023-01-05T00:35:25.581Z,97277.59
2023-01-05T00:37:53.123Z,97275.19
2023-01-05T00:40:22.648Z,97278.41
2023-01-05T00:42:50.250Z,97269.16
2023-01-05T00:45:19.385Z,97275.53
2023-01-05T00:47:49.318Z,97270.22
2023-01-05T00:50:18.696Z,97278.66
2023-01-05T00:52:47.071Z,97288.72
2023-01-05T00:55:15.397Z,97277.41
2023-01-05T00:57:42.929Z,97289.09
2023-01-05T01:00:16.225Z,97267.81
2023-01-05T01:02:43.791Z,97262.97
2023-01-05T01:05:11.742Z,97269.31
2023-01-05T01:07:39.311Z,97272.91
2023-01-05T01:10:08.132Z,97269.91
2023-01-05T01:12:35.677Z,97279.03
2023-01-05T01:15:03.471Z,97281.59
2023-01-05T01:17:32.868Z,97289.09
2023-01-05T01:20:00.291Z,97269.19
2023-01-05T01:22:27.988Z,97275.09
2023-01-05T01:24:55.454Z,97275.09
2023-01-05T01:27:23.014Z,97268.50
2023-01-05T01:29:50.432Z,97272.06
2023-01-05T01:32:18.124Z,97274.72
2023-01-05T01:34:45.608Z,97277.72
2023-01-05T01:37:13.598Z,97278.19
2023-01-05T01:39:48.381Z,97276.59
2023-01-05T01:42:17.380Z,97274.16
2023-01-05T01:44:56.238Z,97278.31
2023-01-05T01:47:45.772Z,97278.53
2023-01-05T01:50:22.344Z,97279.66
2023-01-05T01:52:52.988Z,97291.97
2023-01-05T01:55:21.128Z,97290.38
2023-01-05T01:57:50.660Z,97280.44
2023-01-05T02:00:19.221Z,97276.28
2023-01-05T02:02:49.102Z,97287.34
2023-01-05T02:05:23.975Z,97278.56
2023-01-05T02:07:51.510Z,97279.72
2023-01-05T02:10:41.357Z,97283.31
2023-01-05T02:13:18.621Z,97270.00
2023-01-05T02:16:12.276Z,97264.44
2023-01-05T02:19:01.738Z,97265.97
2023-01-05T02:21:47.758Z,97268.16
2023-01-05T02:24:24.225Z,97269.66
2023-01-05T02:27:41.212Z,97263.06
2023-01-05T02:30:23.981Z,97250.47
2023-01-05T02:32:56.922Z,97248.38
2023-01-05T02:35:40.898Z,97241.44
2023-01-05T02:38:31.376Z,97235.91
2023-01-05T02:41:20.070Z,97244.06
2023-01-05T02:43:48.040Z,97245.19
2023-01-05T02:46:15.596Z,97246.72
2023-01-05T02:48:46.027Z,97238.97
2023-01-05T02:51:23.865Z,97247.66
2023-01-05T02:54:02.547Z,97244.06
2023-01-05T02:56:51.345Z,97241.22
2023-01-05T02:59:32.112Z,97236.81
2023-01-05T03:02:04.973Z,97247.22
2023-01-05T03:04:39.946Z,97257.72
2023-01-05T03:07:13.254Z,97248.25
2023-01-05T03:09:42.842Z,97242.00
2023-01-05T03:12:47.877Z,97236.41
2023-01-05T03:15:31.148Z,97251.53
2023-01-05T03:18:07.327Z,97235.00
2023-01-05T03:20:40.610Z,97247.03
2023-01-05T03:23:30.951Z,97242.03
2023-01-05T03:26:17.842Z,97240.97
2023-01-05T03:29:09.590Z,97229.31
2023-01-05T03:32:01.887Z,97236.34
2023-01-05T03:35:06.819Z,97233.19
2023-01-05T03:37:55.744Z,97217.22
2023-01-05T03:40:31.170Z,97228.19
2023-01-05T03:42:59.882Z,97236.88
2023-01-05T03:45:44.670Z,97234.00
2023-01-05T03:48:18.881Z,97226.59
2023-01-05T03:50:47.181Z,97222.63
2023-01-05T03:53:16.555Z,97242.66
2023-01-05T03:55:46.507Z,97239.44
2023-01-05T03:58:14.723Z,97233.38
2023-01-05T04:00:46.951Z,97244.28
2023-01-05T04:03:17.467Z,97230.56
2023-01-05T04:05:45.169Z,97236.84
2023-01-05T04:08:13.198Z,97234.97
2023-01-05T04:10:40.735Z,97249.19
2023-01-05T04:13:09.462Z,97233.22
2023-01-05T04:15:38.689Z,97252.91
2023-01-05T04:18:08.262Z,97255.81
2023-01-05T04:20:35.740Z,97240.88
2023-01-05T04:23:03.502Z,97243.13
2023-01-05T04:25:33.245Z,97256.69
2023-01-05T04:28:12.047Z,97257.16
2023-01-05T04:30:39.967Z,97272.22
2023-01-05T04:33:07.422Z,97271.09
2023-01-05T04:35:35.412Z,97285.56
2023-01-05T04:38:04.212Z,97268.53
2023-01-05T04:40:33.334Z,97258.97
2023-01-05T04:43:01.617Z,97262.59
2023-01-05T04:45:29.745Z,97270.47
2023-01-05T04:47:59.112Z,97280.75
2023-01-05T04:50:27.633Z,97289.09
2023-01-05T04:52:56.841Z,97293.50
2023-01-05T04:55:24.417Z,97288.16
2023-01-05T04:57:52.783Z,97289.66
2023-01-05T05:00:21.915Z,97291.06
2023-01-05T05:02:51.549Z,97298.38
2023-01-05T05:05:19.538Z,97283.22
2023-01-05T05:07:51.303Z,97304.38
2023-01-05T05:10:19.314Z,97304.16
2023-01-05T05:12:48.362Z,97311.44
2023-01-05T05:15:16.251Z,97304.03
2023-01-05T05:17:47.224Z,97309.94
2023-01-05T05:20:16.723Z,97309.22
2023-01-05T05:22:44.759Z,97312.34
2023-01-05T05:25:15.990Z,97317.44
2023-01-05T05:27:47.046Z,97314.78
2023-01-05T05:30:14.815Z,97325.31
2023-01-05T05:36:29.761Z,97339.06
2023-01-05T05:38:58.446Z,97336.16
2023-01-05T05:41:26.132Z,97349.59
2023-01-05T05:43:53.658Z,97350.88
2023-01-05T05:46:21.366Z,97349.03
2023-01-05T05:48:48.870Z,97365.66
2023-01-05T05:51:16.376Z,97353.69
2023-01-05T05:53:43.919Z,97352.94
2023-01-05T05:56:11.521Z,97370.34
2023-01-05T05:58:39.123Z,97374.69
2023-01-05T06:01:06.925Z,97379.44
2023-01-05T06:03:34.574Z,97359.56
2023-01-05T06:06:03.121Z,97369.53
2023-01-05T06:08:30.917Z,97379.72
2023-01-05T06:10:58.877Z,97366.56
2023-01-05T06:13:26.625Z,97372.34
2023-01-05T06:15:54.146Z,97369.34
2023-01-05T06:18:21.626Z,97356.41
2023-01-05T06:20:49.174Z,97364.38
2023-01-05T06:23:16.808Z,97358.84
2023-01-05T06:25:44.569Z,97352.72
2023-01-05T06:28:15.625Z,97354.47
2023-01-05T06:30:45.936Z,97352.66
2023-01-05T06:33:13.465Z,97357.66
2023-01-05T06:35:41.075Z,97347.38
2023-01-05T06:38:08.601Z,97347.38
2023-01-05T06:40:36.156Z,97353.84
2023-01-05T06:43:03.606Z,97372.09
2023-01-05T06:45:32.497Z,97358.34
2023-01-05T06:48:01.200Z,97353.50
2023-01-05T06:50:30.562Z,97359.97
2023-01-05T06:52:58.820Z,97358.22
2023-01-05T06:55:26.384Z,97371.28
2023-01-05T06:58:00.277Z,97368.94
2023-01-05T07:00:29.390Z,97390.81
2023-01-05T07:02:56.918Z,97383.41
2023-01-05T07:05:24.794Z,97379.03
2023-01-05T07:07:52.503Z,97409.19
2023-01-05T07:10:20.102Z,97402.63
2023-01-05T07:12:47.571Z,97403.66
2023-01-05T07:15:15.048Z,97399.16
2023-01-05T07:17:42.485Z,97415.47
2023-01-05T07:20:10.231Z,97401.72
2023-01-05T07:22:37.694Z,97412.13
2023-01-05T07:25:05.472Z,97433.28
2023-01-05T07:27:33.027Z,97426.34
2023-01-05T07:30:00.694Z,97435.16
2023-01-05T07:32:28.210Z,97436.16
2023-01-05T07:34:56.213Z,97428.44
2023-01-05T07:37:25.313Z,97424.72
2023-01-05T07:39:53.480Z,97432.50
2023-01-05T07:42:21.239Z,97437.34
2023-01-05T07:44:50.422Z,97437.44
2023-01-05T07:47:18.324Z,97427.63
2023-01-05T07:49:46.538Z,97451.78
2023-01-05T07:52:14.030Z,97447.25
2023-01-05T07:54:41.600Z,97450.72
2023-01-05T07:57:09.170Z,97448.31
2023-01-05T07:59:36.648Z,97464.72
2023-01-05T08:02:04.304Z,97468.19
2023-01-05T08:04:32.017Z,97469.13
2023-01-05T08:06:59.905Z,97475.56
2023-01-05T08:09:46.120Z,97483.41
2023-01-05T08:12:13.655Z,97477.09
2023-01-05T08:14:41.160Z,97483.13
2023-01-05T08:17:09.322Z,97482.13
2023-01-05T08:19:36.960Z,97488.19
2023-01-05T08:22:04.761Z,97479.38
2023-01-05T08:24:32.448Z,97474.00
2023-01-05T08:27:00.076Z,97485.28
2023-01-05T08:29:28.131Z,97485.78
2023-01-05T08:31:56.012Z,97489.91
2023-01-05T08:34:23.558Z,97482.81
2023-01-05T08:36:51.070Z,97510.91
2023-01-05T08:39:18.540Z,97513.25
2023-01-05T08:41:45.990Z,97501.47
2023-01-05T08:44:14.538Z,97514.66
2023-01-05T08:46:42.112Z,97518.56
2023-01-05T08:49:10.067Z,97518.44
2023-01-05T08:51:38.531Z,97522.34
2023-01-05T08:54:06.145Z,97528.63
2023-01-05T08:56:38.574Z,97532.59
2023-01-05T08:59:07.202Z,97524.56
2023-01-05T09:01:34.846Z,97527.34
2023-01-05T09:04:02.521Z,97521.50
2023-01-05T09:06:29.979Z,97536.00
2023-01-05T09:08:57.501Z,97552.09
2023-01-05T09:11:26.209Z,97551.09
2023-01-05T09:13:56.821Z,97552.53
2023-01-05T09:19:17.958Z,97563.66
2023-01-05T09:21:45.464Z,97562.63
2023-01-05T09:24:13.369Z,97560.44
2023-01-05T09:26:42.382Z,97558.41
2023-01-05T09:29:11.305Z,97553.47
2023-01-05T09:31:40.662Z,97561.38
2023-01-05T09:34:08.293Z,97557.69
2023-01-05T09:36:38.938Z,97557.41
2023-01-05T09:39:06.710Z,97561.69
2023-01-05T09:41:38.232Z,97555.19
2023-01-05T09:44:37.019Z,97556.75
2023-01-05T09:47:21.086Z,97562.06
2023-01-05T09:49:50.492Z,97560.34
2023-01-05T09:52:22.758Z,97547.94
2023-01-05T09:54:50.420Z,97549.19
2023-01-05T09:57:25.569Z,97537.72
2023-01-05T09:59:59.318Z,97543.78
2023-01-05T10:02:46.360Z,97551.09
2023-01-05T10:05:15.614Z,97555.50
2023-01-05T10:07:54.096Z,97543.97
2023-01-05T10:10:37.590Z,97537.59
2023-01-05T10:13:07.299Z,97542.09
2023-01-05T10:15:46.609Z,97544.53
2023-01-05T10:18:21.236Z,97539.44
2023-01-05T10:21:27.284Z,97529.84
2023-01-05T10:24:16.403Z,97531.00
2023-01-05T10:27:25.846Z,97539.28
2023-01-05T10:30:18.592Z,97558.72
2023-01-05T10:32:50.548Z,97561.00
2023-01-05T10:38:28.975Z,97553.50
2023-01-05T10:41:15.036Z,97552.53
2023-01-05T10:44:20.028Z,97571.31
2023-01-05T10:46:52.738Z,97549.75
2023-01-05T10:49:26.589Z,97575.94
2023-01-05T10:52:00.018Z,97578.41
2023-01-05T10:54:33.763Z,97584.72
2023-01-05T10:57:34.650Z,97570.16
2023-01-05T11:00:12.247Z,97569.81
2023-01-05T11:02:48.478Z,97579.97
2023-01-05T11:05:33.428Z,97589.59
2023-01-05T11:08:04.340Z,97589.38
2023-01-05T11:10:36.532Z,97586.63
2023-01-05T11:13:16.950Z,97598.25
2023-01-05T11:15:52.846Z,97596.25
2023-01-05T11:18:36.850Z,97588.03
2023-01-05T11:21:13.619Z,97573.63
2023-01-05T11:23:51.097Z,97595.50
2023-01-05T11:26:18.597Z,97601.09
2023-01-05T11:28:58.219Z,97604.53
2023-01-05T11:31:31.968Z,97590.44
2023-01-05T11:34:00.351Z,97600.03
2023-01-05T11:36:27.904Z,97600.47
2023-01-05T11:38:58.173Z,97585.88
2023-01-05T11:41:25.963Z,97594.69
2023-01-05T11:43:54.809Z,97587.63
2023-01-05T11:46:22.925Z,97599.91
2023-01-05T11:48:54.503Z,97603.09
2023-01-05T11:51:40.863Z,97606.25
2023-01-05T11:54:33.082Z,97617.16
2023-01-05T11:57:22.509Z,97590.75
2023-01-05T11:59:55.880Z,97619.56
2023-01-05T12:02:39.624Z,97616.34
2023-01-05T12:05:16.400Z,97605.00
2023-01-05T12:07:53.564Z,97630.25
2023-01-05T12:10:27.312Z,97627.03
2023-01-05T12:13:24.956Z,97621.78
2023-01-05T12:16:02.479Z,97620.75
2023-01-05T12:18:54.851Z,97620.34
2023-01-05T12:21:27.791Z,97622.28
2023-01-05T12:24:07.191Z,97599.97
2023-01-05T12:27:02.731Z,97624.13
2023-01-05T12:35:45.325Z,97629.84
2023-01-05T12:38:25.490Z,97625.03
2023-01-05T12:40:55.815Z,97631.25
2023-01-05T12:43:54.902Z,97611.09
2023-01-05T12:46:56.052Z,97630.44
2023-01-05T12:49:44.443Z,97638.53
2023-01-05T12:52:22.969Z,97640.78
2023-01-05T12:55:05.577Z,97643.00
2023-01-05T12:57:39.253Z,97651.22
2023-01-05T13:00:13.052Z,97656.72
2023-01-05T13:02:56.754Z,97666.59
2023-01-05T13:05:32.848Z,97649.41
2023-01-05T13:08:17.672Z,97677.31
2023-01-05T13:10:57.765Z,97677.38
2023-01-05T13:13:48.591Z,97681.59
2023-01-05T13:16:26.630Z,97668.81
2023-01-05T13:19:02.355Z,97670.16
2023-01-05T13:21:31.584Z,97670.16
2023-01-05T13:24:22.911Z,97672.06
2023-01-05T13:26:51.084Z,97683.31
2023-01-05T13:29:44.206Z,97685.72
2023-01-05T13:32:40.875Z,97688.22
2023-01-05T13:35:40.598Z,97680.13
2023-01-05T13:38:43.252Z,97690.25
2023-01-05T13:41:13.262Z,97702.50
2023-01-05T13:44:02.361Z,97689.00
2023-01-05T13:46:54.791Z,97708.13
2023-01-05T13:50:16.887Z,97718.53
2023-01-05T13:53:20.452Z,97716.09
2023-01-05T13:56:14.099Z,97720.66
2023-01-05T13:58:44.084Z,97725.59
2023-01-05T14:01:33.204Z,97727.63
2023-01-05T14:04:01.667Z,97729.94
2023-01-05T14:06:36.089Z,97731.78
2023-01-05T14:09:14.729Z,97744.47
2023-01-05T14:12:08.213Z,97753.50
2023-01-05T14:15:13.017Z,97751.44
2023-01-05T14:17:55.756Z,97763.78
2023-01-05T14:20:35.146Z,97769.28
2023-01-05T14:23:25.372Z,97770.78
2023-01-05T14:25:56.510Z,97772.22
2023-01-05T14:28:42.436Z,97776.56
2023-01-05T14:31:16.396Z,97791.28
2023-01-05T14:33:54.193Z,97799.69
2023-01-05T14:36:47.421Z,97801.84
2023-01-05T14:39:17.962Z,97821.88
2023-01-05T14:42:04.039Z,97817.63
2023-01-05T14:44:45.758Z,97816.47
2023-01-05T14:47:13.689Z,97838.34
2023-01-05T14:50:05.029Z,97830.78
2023-01-05T14:52:59.119Z,97840.22
2023-01-05T14:55:39.561Z,97836.78
2023-01-05T14:58:36.692Z,97840.69
2023-01-05T15:01:16.766Z,97853.53
2023-01-05T15:04:03.179Z,97863.97
2023-01-05T15:06:48.808Z,97863.97
2023-01-05T15:10:07.188Z,97870.28
2023-01-05T15:12:55.887Z,97882.75
2023-01-05T15:15:29.354Z,97879.50
2023-01-05T15:18:12.499Z,97884.41
2023-01-05T15:21:03.579Z,97880.31
2023-01-05T15:23:51.064Z,97893.00
2023-01-05T15:26:57.564Z,97885.44
2023-01-05T15:29:46.610Z,97896.47
2023-01-05T15:32:27.122Z,97899.13
2023-01-05T15:35:09.726Z,97894.03
2023-01-05T15:37:39.848Z,97896.50
2023-01-05T15:40:27.460Z,97898.13
2023-01-05T15:42:58.505Z,97896.50
2023-01-05T15:45:29.276Z,97894.84
2023-01-05T15:48:01.055Z,97894.44
2023-01-05T15:50:50.151Z,97897.31
2023-01-05T15:53:29.669Z,97899.53
2023-01-05T15:55:58.304Z,97914.00
2023-01-05T15:58:28.008Z,97905.84
2023-01-05T16:01:04.889Z,97912.94
2023-01-05T16:03:35.982Z,97913.16
2023-01-05T16:06:25.613Z,97919.09
2023-01-05T16:08:56.416Z,97912.94
2023-01-05T16:11:29.328Z,97924.19
2023-01-05T16:14:03.205Z,97931.50
2023-01-05T16:16:52.906Z,97943.13
2023-01-05T16:19:34.779Z,97951.69
2023-01-05T16:22:24.344Z,97957.41
2023-01-05T16:25:10.297Z,97958.84
2023-01-05T16:27:41.101Z,97957.19
2023-01-05T16:30:32.108Z,97965.94
2023-01-05T16:33:19.718Z,97969.22
2023-01-05T16:35:53.107Z,97958.78
2023-01-05T16:38:20.654Z,97963.09
2023-01-05T16:40:50.883Z,97976.34
2023-01-05T16:44:03.412Z,97979.41
2023-01-05T16:46:40.318Z,97978.59
2023-01-05T16:49:33.770Z,97985.50
2023-01-05T16:52:02.811Z,97997.94
2023-01-05T16:54:38.382Z,97995.06
2023-01-05T16:57:42.189Z,97994.88
2023-01-05T17:00:42.189Z,98002.84
2023-01-05T17:03:31.461Z,98008.94
2023-01-05T17:06:01.241Z,98010.00
2023-01-05T17:08:31.966Z,98010.97
2023-01-05T17:11:01.952Z,98013.63
2023-01-05T17:13:37.911Z,98021.97
2023-01-05T17:16:06.044Z,98022.56
2023-01-05T17:18:33.593Z,98028.47
2023-01-05T17:21:03.376Z,98025.81
2023-01-05T17:23:42.408Z,98034.41
2023-01-05T17:26:12.131Z,98032.53
2023-01-05T17:28:42.087Z,98034.38
2023-01-05T17:31:10.785Z,98050.28
2023-01-05T17:33:38.429Z,98052.09
2023-01-05T17:36:06.516Z,98063.50
2023-01-05T17:38:34.118Z,98059.25
2023-01-05T17:41:01.807Z,98064.53
2023-01-05T17:43:29.261Z,98067.78
2023-01-05T17:45:57.116Z,98075.72
2023-01-05T17:48:24.662Z,98074.34
2023-01-05T17:50:54.174Z,98084.09
2023-01-05T17:53:22.211Z,98083.28
2023-01-05T17:55:49.730Z,98084.09
2023-01-05T17:58:17.198Z,98085.94
2023-01-05T18:00:48.365Z,98084.50
2023-01-05T18:03:22.024Z,98087.78
2023-01-05T18:05:51.496Z,98096.31
2023-01-05T18:08:20.395Z,98083.25
2023-01-05T18:10:48.274Z,98086.31
2023-01-05T18:13:18.283Z,98097.91
2023-01-05T18:15:50.784Z,98090.56
2023-01-05T18:18:18.766Z,98099.75
2023-01-05T18:20:46.291Z,98097.53
2023-01-05T18:23:13.806Z,98105.88
2023-01-05T18:25:41.391Z,98113.00
2023-01-05T18:28:08.903Z,98108.69
2023-01-05T18:30:36.735Z,98110.13
2023-01-05T18:33:04.332Z,98108.91
2023-01-05T18:35:31.907Z,98107.06
2023-01-05T18:38:01.234Z,98112.13
2023-01-05T18:40:29.253Z,98119.47
2023-01-05T18:42:56.982Z,98118.63
2023-01-05T18:45:38.221Z,98119.63
2023-01-05T18:48:06.889Z,98123.91
2023-01-05T18:50:34.349Z,98127.16
2023-01-05T18:53:01.882Z,98124.31
2023-01-05T18:55:29.488Z,98135.91
2023-01-05T18:57:57.019Z,98145.28
2023-01-05T19:00:24.396Z,98148.31
2023-01-05T19:02:51.965Z,98153.81
2023-01-05T19:05:19.472Z,98162.22
2023-01-05T19:07:51.263Z,98162.78
2023-01-05T19:10:19.106Z,98159.13
2023-01-05T19:12:46.592Z,98162.53
2023-01-05T19:15:14.202Z,98159.28
2023-01-05T19:17:41.938Z,98154.38
2023-01-05T19:20:09.877Z,98156.34
2023-01-05T19:22:37.392Z,98151.81
2023-01-05T19:25:06.202Z,98146.91
2023-01-05T19:27:34.876Z,98147.53
2023-01-05T19:30:02.413Z,98154.22
2023-01-05T19:32:31.972Z,98152.38
2023-01-05T19:34:59.528Z,98148.75
2023-01-05T19:37:27.000Z,98147.94
2023-01-05T19:39:54.911Z,98148.75
2023-01-05T19:42:22.390Z,98147.47
2023-01-05T19:44:50.538Z,98147.03
2023-01-05T19:47:18.066Z,98150.75
2023-01-05T19:49:45.672Z,98154.97
2023-01-05T19:52:13.992Z,98154.81
2023-01-05T19:54:42.416Z,98162.53
2023-01-05T19:57:09.995Z,98166.00
2023-01-05T19:59:37.583Z,98159.50
2023-01-05T20:02:06.421Z,98166.47
2023-01-05T20:04:34.204Z,98167.28
2023-01-05T20:07:03.929Z,98173.19
2023-01-05T20:09:32.255Z,98173.75
2023-01-05T20:12:13.178Z,98174.41
2023-01-05T20:14:42.694Z,98173.34
2023-01-05T20:17:11.721Z,98180.69
2023-01-05T20:19:39.798Z,98178.25
2023-01-05T20:22:08.904Z,98176.41
2023-01-05T20:24:37.427Z,98183.16
2023-01-05T20:27:08.874Z,98181.13
2023-01-05T20:29:37.932Z,98188.88
2023-01-05T20:32:09.092Z,98193.50
2023-01-05T20:34:38.783Z,98198.22
2023-01-05T20:37:08.305Z,98204.75
2023-01-05T20:39:37.801Z,98203.13
2023-01-05T20:42:05.771Z,98206.78
2023-01-05T20:44:36.472Z,98210.44
2023-01-05T20:47:06.743Z,98211.84
2023-01-05T20:49:36.015Z,98216.94
2023-01-05T20:52:04.023Z,98223.41
2023-01-05T20:54:31.835Z,98223.25
2023-01-05T20:56:59.391Z,98224.69
2023-01-05T20:59:32.098Z,98228.16
2023-01-05T21:02:00.857Z,98224.50
2023-01-05T21:04:29.975Z,98232.00
2023-01-05T21:07:04.144Z,98237.28
2023-01-05T21:09:31.652Z,98235.06
2023-01-05T21:11:59.253Z,98234.66
2023-01-05T21:14:26.828Z,98243.59
2023-01-05T21:16:55.617Z,98244.84
2023-01-05T21:19:24.232Z,98245.22
2023-01-05T21:21:55.843Z,98251.16
2023-01-05T21:24:24.276Z,98259.28
2023-01-05T21:26:52.047Z,98253.53
2023-01-05T21:29:23.052Z,98251.44
2023-01-05T21:31:51.529Z,98258.03
2023-01-05T21:34:19.211Z,98265.16
2023-01-05T21:36:48.513Z,98258.94
2023-01-05T21:39:20.040Z,98262.63
2023-01-05T21:42:07.401Z,98263.06
2023-01-05T21:44:35.352Z,98264.56
2023-01-05T21:47:05.651Z,98266.78
2023-01-05T21:49:35.177Z,98253.34
2023-01-05T21:52:21.544Z,98262.31
2023-01-05T21:55:08.047Z,98260.25
2023-01-05T21:57:35.676Z,98265.69
2023-01-05T22:00:04.129Z,98260.25
2023-01-05T22:02:32.400Z,98256.94
2023-01-05T22:04:59.889Z,98254.69
2023-01-05T22:07:27.523Z,98262.19
2023-01-05T22:09:55.108Z,98265.00
2023-01-05T22:12:22.632Z,98255.16
2023-01-05T22:14:50.450Z,98261.28
2023-01-05T22:17:18.037Z,98276.25
2023-01-05T22:19:45.561Z,98269.13
2023-01-05T22:22:13.156Z,98269.78
2023-01-05T22:24:40.589Z,98278.53
2023-01-05T22:27:08.527Z,98276.34
2023-01-05T22:29:35.981Z,98278.16
2023-01-05T22:32:03.739Z,98271.03
2023-01-05T22:34:31.646Z,98281.00
2023-01-05T22:36:59.239Z,98287.94
2023-01-05T22:39:26.726Z,98288.56
2023-01-05T22:41:54.253Z,98292.03
2023-01-05T22:44:21.749Z,98298.31
2023-01-05T22:46:49.251Z,98309.09
2023-01-05T22:49:16.812Z,98300.41
2023-01-05T22:51:46.438Z,98294.31
2023-01-05T22:54:14.468Z,98297.78
2023-01-05T22:56:42.006Z,98298.59
2023-01-05T22:59:09.543Z,98287.72
2023-01-05T23:01:39.851Z,98287.56
2023-01-05T23:04:07.892Z,98288.56
2023-01-05T23:06:35.639Z,98291.84
2023-01-05T23:09:05.120Z,98298.78
2023-01-05T23:11:36.762Z,98300.41
2023-01-05T23:14:06.912Z,98294.09
2023-01-05T23:16:35.548Z,98296.59
2023-01-05T23:19:05.908Z,98290.47
2023-01-05T23:21:34.720Z,98301.06
2023-01-05T23:24:02.676Z,98298.41
2023-01-05T23:26:30.577Z,98301.06
2023-01-05T23:28:58.535Z,98303.06
2023-01-05T23:31:26.475Z,98311.00
2023-01-05T23:33:53.882Z,98309.38
2023-01-05T23:36:23.729Z,98313.19
2023-01-05T23:38:52.075Z,98315.47
2023-01-05T23:41:19.695Z,98313.00
2023-01-05T23:43:47.556Z,98313.66
2023-01-05T23:46:20.179Z,98313.81
2023-01-05T23:48:49.270Z,98310.56
2023-01-05T23:51:18.367Z,98309.09
2023-01-05T23:53:48.739Z,98310.94
2023-01-05T23:56:19.743Z,98307.47
2023-01-05T23:58:48.312Z,98314.19
